Time;durP1;ratioP1;P1;durP2;ratioP2;P2;SDS_P1;SDS_P2;PMS_P1;PMS_P2;Temp;Humidity;BMP_temperature;BMP_pressure;BME280_temperature;BME280_humidity;BME280_pressure;Samples;Min_cycle;Max_cycle;Signal;HPM_P1;HPM_P2
2023/06/02 00:01:31;;;;;;;2.33;2.03;;;;;;;;;;5007853;28;20245;-29
2023/06/02 00:04:01;;;;;;;2.87;2.03;;;;;;;;;;5010085;28;20294;-28
2023/06/02 00:06:33;;;;;;;2.73;2.33;;;;;;;;;;5012809;28;20317;-32
2023/06/02 00:09:00;;;;;;;3.23;2.50;;;;;;;;;;5012311;28;20229;-30
2023/06/02 00:11:27;;;;;;;2.43;2.23;;;;;;;;;;5004968;28;20221;-31
2023/06/02 00:13:54;;;;;;;3.70;2.00;;;;;;;;;;5011553;28;20226;-27
2023/06/02 00:16:24;;;;;;;3.20;2.53;;;;;;;;;;5005440;28;20566;-28
2023/06/02 00:18:52;;;;;;;4.80;2.43;;;;;;;;;;5010514;28;20203;-29
2023/06/02 00:21:21;;;;;;;2.63;2.27;;;;;;;;;;5012713;28;20206;-31
2023/06/02 00:23:48;;;;;;;3.10;2.43;;;;;;;;;;5013008;28;20214;-27
2023/06/02 00:26:21;;;;;;;3.10;2.50;;;;;;;;;;5006082;28;20257;-29
2023/06/02 00:28:48;;;;;;;2.60;2.30;;;;;;;;;;5011975;28;20254;-30
2023/06/02 00:31:15;;;;;;;3.20;2.67;;;;;;;;;;5006939;28;20204;-29
2023/06/02 00:33:43;;;;;;;4.93;2.20;;;;;;;;;;5006053;28;20204;-28
2023/06/02 00:36:10;;;;;;;2.13;1.97;;;;;;;;;;5012389;28;20231;-28
2023/06/02 00:38:39;;;;;;;3.20;2.77;;;;;;;;;;5012328;28;20202;-28
2023/06/02 00:41:06;;;;;;;3.20;2.50;;;;;;;;;;4998658;28;20237;-29
2023/06/02 00:43:33;;;;;;;2.60;2.13;;;;;;;;;;5011736;28;20199;-29
2023/06/02 00:46:00;;;;;;;3.57;2.30;;;;;;;;;;5006218;28;20230;-28
2023/06/02 00:48:27;;;;;;;2.43;2.23;;;;;;;;;;5004624;28;20227;-27
2023/06/02 00:50:55;;;;;;;3.03;2.40;;;;;;;;;;5008626;28;20592;-31
2023/06/02 00:53:22;;;;;;;3.10;2.23;;;;;;;;;;5002347;28;20210;-29
2023/06/02 00:55:52;;;;;;;2.67;2.37;;;;;;;;;;5009760;28;20231;-28
2023/06/02 00:58:19;;;;;;;2.40;2.20;;;;;;;;;;5010515;28;20207;-30
2023/06/02 01:00:48;;;;;;;2.50;2.30;;;;;;;;;;5008819;28;20672;-29
2023/06/02 01:03:16;;;;;;;3.77;2.60;;;;;;;;;;5002562;28;20207;-28
2023/06/02 01:05:44;;;;;;;2.73;2.53;;;;;;;;;;5005283;28;20222;-27
2023/06/02 01:08:12;;;;;;;3.80;2.27;;;;;;;;;;4992617;28;20231;-29
2023/06/02 01:10:40;;;;;;;2.73;2.50;;;;;;;;;;4998398;28;20207;-28
2023/06/02 01:13:08;;;;;;;3.37;2.60;;;;;;;;;;5006144;28;20226;-29
2023/06/02 01:15:35;;;;;;;2.50;2.20;;;;;;;;;;5004274;28;20253;-25
2023/06/02 01:18:08;;;;;;;3.73;2.30;;;;;;;;;;4999382;28;20202;-29
2023/06/02 01:20:36;;;;;;;2.60;2.20;;;;;;;;;;4996569;28;20226;-29
2023/06/02 01:23:08;;;;;;;3.97;2.27;;;;;;;;;;5012690;28;20265;-30
2023/06/02 01:25:37;;;;;;;2.90;2.47;;;;;;;;;;5008707;28;20236;-29
2023/06/02 01:28:06;;;;;;;4.20;2.63;;;;;;;;;;5011237;28;20258;-28
2023/06/02 01:30:34;;;;;;;2.90;2.40;;;;;;;;;;5015380;28;20213;-27
2023/06/02 01:33:05;;;;;;;3.23;2.23;;;;;;;;;;5002247;28;20764;-27
2023/06/02 01:35:33;;;;;;;2.33;2.13;;;;;;;;;;5015220;28;20222;-28
2023/06/02 01:38:01;;;;;;;3.33;2.10;;;;;;;;;;5009729;28;20210;-30
2023/06/02 01:40:29;;;;;;;2.70;2.50;;;;;;;;;;5001227;28;20290;-27
2023/06/02 01:43:00;;;;;;;2.70;2.13;;;;;;;;;;5013271;28;20210;-28
2023/06/02 01:45:27;;;;;;;2.40;2.20;;;;;;;;;;5015715;28;20219;-29
2023/06/02 01:48:00;;;;;;;3.30;2.57;;;;;;;;;;5007789;28;20317;-30
2023/06/02 01:50:28;;;;;;;2.70;2.47;;;;;;;;;;5014553;28;20203;-31
2023/06/02 01:52:55;;;;;;;4.13;2.73;;;;;;;;;;5008419;28;20202;-32
2023/06/02 01:55:22;;;;;;;4.03;2.73;;;;;;;;;;5004513;28;20245;-30
2023/06/02 01:57:49;;;;;;;3.30;2.33;;;;;;;;;;5013139;28;20217;-29
2023/06/02 02:00:18;;;;;;;3.50;2.60;;;;;;;;;;5013684;28;20205;-28
2023/06/02 02:02:45;;;;;;;3.50;2.43;;;;;;;;;;5002894;28;20216;-30
2023/06/02 02:05:12;;;;;;;3.07;2.30;;;;;;;;;;5013785;28;20213;-28
2023/06/02 02:07:42;;;;;;;4.57;2.50;;;;;;;;;;5015164;28;20598;-29
2023/06/02 02:10:10;;;;;;;3.67;2.30;;;;;;;;;;5009685;28;20245;-28
2023/06/02 02:12:37;;;;;;;3.77;2.60;;;;;;;;;;5006764;28;20218;-31
2023/06/02 02:15:06;;;;;;;3.50;2.57;;;;;;;;;;5014956;28;20210;-30
2023/06/02 02:17:36;;;;;;;3.27;2.80;;;;;;;;;;5002414;28;20209;-28
2023/06/02 02:20:05;;;;;;;3.90;2.87;;;;;;;;;;5004759;28;20242;-26
2023/06/02 02:22:32;;;;;;;3.53;2.20;;;;;;;;;;5013463;28;20260;-29
2023/06/02 02:25:00;;;;;;;2.73;2.30;;;;;;;;;;4999078;28;20210;-30
2023/06/02 02:27:27;;;;;;;3.47;2.17;;;;;;;;;;5012977;28;20226;-29
2023/06/02 02:29:55;;;;;;;4.70;2.90;;;;;;;;;;5014582;28;20214;-30
2023/06/02 02:32:22;;;;;;;2.73;2.50;;;;;;;;;;5003376;28;20206;-28
2023/06/02 02:34:50;;;;;;;3.43;2.67;;;;;;;;;;5012150;28;20202;-29
2023/06/02 02:37:19;;;;;;;2.90;2.50;;;;;;;;;;5014571;28;20228;-31
2023/06/02 02:39:46;;;;;;;3.00;2.70;;;;;;;;;;5011091;28;20557;-31
2023/06/02 02:42:13;;;;;;;3.50;2.40;;;;;;;;;;5013222;28;20208;-26
2023/06/02 02:44:41;;;;;;;3.50;2.63;;;;;;;;;;5014070;28;20209;-30
2023/06/02 02:47:08;;;;;;;2.83;2.47;;;;;;;;;;5003630;28;20234;-29
2023/06/02 02:49:35;;;;;;;3.10;2.80;;;;;;;;;;5007743;28;20236;-28
2023/06/02 02:52:03;;;;;;;4.10;3.10;;;;;;;;;;5012133;28;20212;-28
2023/06/02 02:54:31;;;;;;;3.53;2.30;;;;;;;;;;5004491;28;20687;-28
2023/06/02 02:56:58;;;;;;;3.60;2.80;;;;;;;;;;5009268;28;20233;-29
2023/06/02 02:59:27;;;;;;;4.70;2.40;;;;;;;;;;5008560;28;20216;-30
2023/06/02 03:01:54;;;;;;;3.40;2.73;;;;;;;;;;5104755;22;20245;-29
2023/06/02 03:04:22;;;;;;;3.67;2.27;;;;;;;;;;5048502;28;20208;-27
2023/06/02 03:06:50;;;;;;;4.07;2.70;;;;;;;;;;5052983;28;20277;-27
2023/06/02 03:09:18;;;;;;;6.00;2.90;;;;;;;;;;5053147;28;20228;-26
2023/06/02 03:11:46;;;;;;;3.43;2.70;;;;;;;;;;5045982;28;20207;-26
2023/06/02 03:14:13;;;;;;;3.53;2.60;;;;;;;;;;5050989;28;20208;-28
2023/06/02 03:16:41;;;;;;;3.60;2.30;;;;;;;;;;5042502;28;20239;-27
2023/06/02 03:19:08;;;;;;;3.67;2.37;;;;;;;;;;5049271;28;20207;-27
2023/06/02 03:21:41;;;;;;;2.60;2.23;;;;;;;;;;5057987;28;20208;-25
2023/06/02 03:24:09;;;;;;;3.30;2.47;;;;;;;;;;5050233;28;20208;-25
2023/06/02 03:26:40;;;;;;;3.33;2.70;;;;;;;;;;5041884;28;20230;-28
2023/06/02 03:29:07;;;;;;;6.40;2.50;;;;;;;;;;5045939;28;20235;-26
2023/06/02 03:31:34;;;;;;;3.60;2.47;;;;;;;;;;5045272;28;20199;-24
2023/06/02 03:34:02;;;;;;;3.53;2.43;;;;;;;;;;5046434;28;20208;-26
2023/06/02 03:36:29;;;;;;;2.50;2.30;;;;;;;;;;5049674;28;20228;-28
2023/06/02 03:38:56;;;;;;;3.80;2.40;;;;;;;;;;5051875;28;20210;-28
2023/06/02 03:41:23;;;;;;;2.80;2.50;;;;;;;;;;5039404;28;20208;-27
2023/06/02 03:43:51;;;;;;;2.93;2.70;;;;;;;;;;5045897;28;20199;-25
2023/06/02 03:46:19;;;;;;;2.90;2.60;;;;;;;;;;5047806;28;20250;-26
2023/06/02 03:48:46;;;;;;;3.23;2.83;;;;;;;;;;5045145;28;20223;-26
2023/06/02 03:51:13;;;;;;;4.27;2.80;;;;;;;;;;5052640;28;20215;-26
2023/06/02 03:53:40;;;;;;;3.33;2.97;;;;;;;;;;5052332;28;20201;-28
2023/06/02 03:56:07;;;;;;;4.63;3.10;;;;;;;;;;5042221;28;20236;-25
2023/06/02 03:58:34;;;;;;;3.80;2.93;;;;;;;;;;5048477;28;20227;-26
2023/06/02 04:01:04;;;;;;;3.30;2.63;;;;;;;;;;5050029;28;20257;-26
2023/06/02 04:03:36;;;;;;;3.43;3.00;;;;;;;;;;5041987;28;20246;-24
2023/06/02 04:06:04;;;;;;;3.73;2.83;;;;;;;;;;5052037;28;20316;-27
2023/06/02 04:08:31;;;;;;;2.97;2.47;;;;;;;;;;5052376;28;20220;-27
2023/06/02 04:10:58;;;;;;;4.07;2.30;;;;;;;;;;5047784;28;20220;-24
2023/06/02 04:13:25;;;;;;;3.10;2.80;;;;;;;;;;5042935;28;20200;-26
2023/06/02 04:15:52;;;;;;;3.10;2.80;;;;;;;;;;5048081;28;20223;-28
2023/06/02 04:18:21;;;;;;;3.27;2.97;;;;;;;;;;5044390;28;20682;-25
2023/06/02 04:20:48;;;;;;;5.47;3.20;;;;;;;;;;5051645;28;20199;-27
2023/06/02 04:23:15;;;;;;;5.13;3.07;;;;;;;;;;5052205;28;20206;-27
2023/06/02 04:25:42;;;;;;;3.57;3.07;;;;;;;;;;5048699;28;20219;-28
2023/06/02 04:28:10;;;;;;;3.80;2.67;;;;;;;;;;5040370;28;20227;-27
2023/06/02 04:30:39;;;;;;;4.13;3.00;;;;;;;;;;5051945;28;20257;-27
2023/06/02 04:33:06;;;;;;;3.83;3.00;;;;;;;;;;5042466;28;20198;-24
2023/06/02 04:35:35;;;;;;;5.20;2.87;;;;;;;;;;5051046;28;20309;-27
2023/06/02 04:38:03;;;;;;;2.90;2.70;;;;;;;;;;5051649;28;20205;-26
2023/06/02 04:40:30;;;;;;;3.33;2.67;;;;;;;;;;5037945;28;20214;-26
2023/06/02 04:42:58;;;;;;;3.23;2.50;;;;;;;;;;5045580;28;20207;-27
2023/06/02 04:45:25;;;;;;;3.40;3.10;;;;;;;;;;5051462;28;20224;-27
2023/06/02 04:47:53;;;;;;;4.50;3.67;;;;;;;;;;5043631;28;20252;-25
2023/06/02 04:50:20;;;;;;;4.23;2.83;;;;;;;;;;5050961;28;20225;-27
2023/06/02 04:52:48;;;;;;;3.77;2.63;;;;;;;;;;5051588;28;20215;-29
2023/06/02 04:55:15;;;;;;;3.63;2.70;;;;;;;;;;5045150;28;20217;-25
2023/06/02 04:57:42;;;;;;;5.67;3.40;;;;;;;;;;5051445;28;20243;-26
2023/06/02 05:00:10;;;;;;;3.97;3.40;;;;;;;;;;5051704;28;20222;-28
2023/06/02 05:02:37;;;;;;;4.00;3.20;;;;;;;;;;5039865;28;20213;-28
2023/06/02 05:05:05;;;;;;;3.67;3.07;;;;;;;;;;5051310;28;20299;-27
2023/06/02 05:07:32;;;;;;;4.03;3.63;;;;;;;;;;5055015;28;20198;-27
2023/06/02 05:10:01;;;;;;;10.47;4.23;;;;;;;;;;5052691;28;20223;-27
2023/06/02 05:12:28;;;;;;;5.57;3.67;;;;;;;;;;5051838;28;20211;-25
2023/06/02 05:14:55;;;;;;;6.27;4.33;;;;;;;;;;5054575;28;20214;-25
2023/06/02 05:17:23;;;;;;;5.83;3.93;;;;;;;;;;5046774;28;20230;-25
2023/06/02 05:19:52;;;;;;;7.60;4.03;;;;;;;;;;5053855;28;20200;-29
2023/06/02 05:22:19;;;;;;;6.10;4.53;;;;;;;;;;5051593;28;20253;-26
2023/06/02 05:24:46;;;;;;;7.13;4.20;;;;;;;;;;5053799;28;20199;-23
2023/06/02 05:27:14;;;;;;;11.57;4.13;;;;;;;;;;5055273;28;20227;-28
2023/06/02 05:29:42;;;;;;;4.10;3.40;;;;;;;;;;5055169;28;20220;-26
2023/06/02 05:32:28;;;;;;;4.90;4.00;;;;;;;;;;5040118;28;20209;-27
2023/06/02 05:34:55;;;;;;;4.77;3.07;;;;;;;;;;5048874;28;20649;-25
2023/06/02 05:37:22;;;;;;;4.97;3.43;;;;;;;;;;5054569;28;20310;-28
2023/06/02 05:39:49;;;;;;;4.40;3.40;;;;;;;;;;5049143;28;20208;-25
2023/06/02 05:42:17;;;;;;;4.13;3.73;;;;;;;;;;5052971;28;20773;-29
2023/06/02 05:44:44;;;;;;;5.67;3.87;;;;;;;;;;5054317;28;20206;-26
2023/06/02 05:47:13;;;;;;;5.93;3.80;;;;;;;;;;5043197;28;20829;-27
2023/06/02 05:49:40;;;;;;;6.63;4.20;;;;;;;;;;5053229;28;20424;-27
2023/06/02 05:52:13;;;;;;;4.27;3.80;;;;;;;;;;5055695;28;20200;-27
2023/06/02 05:54:41;;;;;;;6.90;4.53;;;;;;;;;;5049263;28;20309;-28
2023/06/02 05:57:08;;;;;;;6.87;4.20;;;;;;;;;;5051051;28;20246;-26
2023/06/02 05:59:37;;;;;;;5.60;3.77;;;;;;;;;;5054292;28;20205;-26
2023/06/02 06:02:04;;;;;;;7.30;4.20;;;;;;;;;;5043655;28;20210;-26
2023/06/02 06:04:31;;;;;;;7.90;4.50;;;;;;;;;;5052554;28;20262;-27
2023/06/02 06:06:59;;;;;;;4.57;3.80;;;;;;;;;;5052377;28;20228;-25
2023/06/02 06:09:27;;;;;;;7.70;4.70;;;;;;;;;;5050848;28;20295;-27
2023/06/02 06:11:54;;;;;;;6.57;4.67;;;;;;;;;;5053866;28;20198;-26
2023/06/02 06:14:21;;;;;;;6.90;4.10;;;;;;;;;;5054000;28;20205;-25
2023/06/02 06:16:49;;;;;;;4.20;3.80;;;;;;;;;;5037995;28;20689;-28
2023/06/02 06:19:18;;;;;;;5.50;4.07;;;;;;;;;;5052548;28;20203;-27
2023/06/02 06:21:45;;;;;;;5.97;4.77;;;;;;;;;;5054062;28;20236;-25
2023/06/02 06:24:12;;;;;;;8.07;4.93;;;;;;;;;;5053264;28;20638;-26
2023/06/02 06:26:40;;;;;;;8.50;4.47;;;;;;;;;;5045815;28;20217;-28
2023/06/02 06:29:07;;;;;;;7.60;4.40;;;;;;;;;;5043603;28;20253;-27
2023/06/02 06:31:34;;;;;;;7.30;4.70;;;;;;;;;;5042737;28;20201;-27
2023/06/02 06:34:04;;;;;;;7.00;4.77;;;;;;;;;;5049117;28;20213;-26
2023/06/02 06:36:33;;;;;;;8.17;4.73;;;;;;;;;;5053395;28;20249;-26
2023/06/02 06:39:00;;;;;;;7.93;4.93;;;;;;;;;;5041102;28;20210;-26
2023/06/02 06:41:27;;;;;;;6.73;5.03;;;;;;;;;;5048339;28;20210;-24
2023/06/02 06:43:55;;;;;;;7.73;4.73;;;;;;;;;;5052135;28;20209;-29
2023/06/02 06:46:22;;;;;;;4.73;4.20;;;;;;;;;;5043508;28;20822;-27
2023/06/02 06:48:50;;;;;;;6.70;4.65;;;;;;;;;;5051083;28;20248;-27
2023/06/02 06:51:19;;;;;;;5.35;4.53;;;;;;;;;;5050102;28;20243;-27
2023/06/02 06:53:46;;;;;;;6.13;4.45;;;;;;;;;;5048988;28;20233;-25
2023/06/02 06:56:13;;;;;;;6.05;4.70;;;;;;;;;;5037171;28;20237;-29
2023/06/02 06:58:40;;;;;;;5.65;4.43;;;;;;;;;;5050526;28;20202;-27
2023/06/02 07:01:07;;;;;;;6.90;4.45;;;;;;;;;;5048397;28;22812;-29
2023/06/02 07:03:34;;;;;;;5.70;4.90;;;;;;;;;;5038494;28;20300;-28
2023/06/02 07:06:01;;;;;;;6.75;4.40;;;;;;;;;;5050398;28;20324;-27
2023/06/02 07:08:30;;;;;;;5.63;4.50;;;;;;;;;;5051746;28;20206;-26
2023/06/02 07:10:57;;;;;;;4.57;4.07;;;;;;;;;;5037262;28;20294;-27
2023/06/02 07:13:27;;;;;;;7.78;4.57;;;;;;;;;;5044934;28;20206;-25
2023/06/02 07:15:54;;;;;;;5.20;4.70;;;;;;;;;;5048484;28;20229;-29
2023/06/02 07:18:21;;;;;;;7.05;4.47;;;;;;;;;;5047700;28;20207;-27
2023/06/02 07:20:48;;;;;;;5.43;4.88;;;;;;;;;;5052034;28;20567;-28
2023/06/02 07:23:16;;;;;;;6.05;4.28;;;;;;;;;;5052714;28;20457;-27
2023/06/02 07:25:45;;;;;;;5.50;4.30;;;;;;;;;;5042331;28;20316;-26
2023/06/02 07:28:12;;;;;;;6.53;4.55;;;;;;;;;;5044027;28;20207;-26
2023/06/02 07:30:39;;;;;;;4.88;4.20;;;;;;;;;;5045333;28;20555;-27
2023/06/02 07:33:06;;;;;;;6.70;4.63;;;;;;;;;;5041626;28;20211;-29
2023/06/02 07:35:33;;;;;;;6.38;4.25;;;;;;;;;;5045446;28;20226;-27
2023/06/02 07:38:00;;;;;;;6.45;4.97;;;;;;;;;;5049943;28;20593;-26
2023/06/02 07:40:27;;;;;;;6.50;4.68;;;;;;;;;;5045794;28;20202;-27
2023/06/02 07:42:56;;;;;;;4.95;4.30;;;;;;;;;;5037827;28;20236;-28
2023/06/02 07:45:23;;;;;;;5.75;4.47;;;;;;;;;;5046099;28;20333;-28
2023/06/02 07:47:50;;;;;;;7.07;4.97;;;;;;;;;;5037027;28;20213;-26
2023/06/02 07:50:18;;;;;;;5.95;4.70;;;;;;;;;;5048099;28;20220;-27
2023/06/02 07:52:45;;;;;;;6.13;4.30;;;;;;;;;;5052299;28;20209;-29
2023/06/02 07:55:13;;;;;;;6.72;4.05;;;;;;;;;;5039876;28;20748;-26
2023/06/02 07:57:40;;;;;;;4.75;4.35;;;;;;;;;;5052446;28;20562;-28
2023/06/02 08:00:12;;;;;;;6.93;4.78;;;;;;;;;;5052973;28;20285;-26
2023/06/02 08:02:40;;;;;;;6.40;4.90;;;;;;;;;;5043650;28;20263;-27
2023/06/02 08:05:07;;;;;;;5.82;4.55;;;;;;;;;;5047137;28;20302;-26
2023/06/02 08:07:46;;;;;;;4.43;4.03;;;;;;;;;;5052508;28;20205;-29
2023/06/02 08:10:14;;;;;;;9.30;4.72;;;;;;;;;;5039835;28;20233;-30
2023/06/02 08:12:41;;;;;;;7.32;4.63;;;;;;;;;;5046719;28;20205;-26
2023/06/02 08:15:08;;;;;;;7.68;4.43;;;;;;;;;;5050570;28;20299;-26
2023/06/02 08:17:37;;;;;;;5.00;4.40;;;;;;;;;;5046506;28;20208;-28
2023/06/02 08:20:05;;;;;;;5.85;4.60;;;;;;;;;;5048412;28;20296;-27
2023/06/02 08:22:33;;;;;;;6.25;4.95;;;;;;;;;;5043225;28;20225;-28
2023/06/02 08:25:01;;;;;;;5.18;4.60;;;;;;;;;;5052695;28;20201;-27
2023/06/02 08:27:28;;;;;;;5.03;4.15;;;;;;;;;;5052624;28;20326;-30
2023/06/02 08:29:56;;;;;;;5.70;4.53;;;;;;;;;;5049042;28;20236;-27
2023/06/02 08:32:24;;;;;;;4.80;4.30;;;;;;;;;;5045023;28;20353;-26
2023/06/02 08:34:55;;;;;;;10.30;4.88;;;;;;;;;;5052031;28;20219;-29
2023/06/02 08:37:22;;;;;;;5.22;4.72;;;;;;;;;;5052247;28;20235;-27
2023/06/02 08:39:49;;;;;;;6.78;5.00;;;;;;;;;;5054088;28;20206;-31
2023/06/02 08:42:20;;;;;;;6.07;4.45;;;;;;;;;;5046600;28;20209;-26
2023/06/02 08:44:47;;;;;;;7.35;5.07;;;;;;;;;;5054620;28;20267;-27
2023/06/02 08:47:14;;;;;;;4.88;4.32;;;;;;;;;;5050568;28;20236;-30
2023/06/02 08:49:42;;;;;;;6.00;4.65;;;;;;;;;;5054645;28;20221;-28
2023/06/02 08:52:13;;;;;;;4.45;4.07;;;;;;;;;;5055060;28;20201;-26
2023/06/02 08:54:40;;;;;;;4.55;4.10;;;;;;;;;;5055149;28;20685;-31
2023/06/02 08:57:09;;;;;;;4.93;4.43;;;;;;;;;;5045093;28;20259;-28
2023/06/02 08:59:37;;;;;;;6.57;4.82;;;;;;;;;;5056039;28;20208;-28
2023/06/02 09:02:04;;;;;;;5.72;4.18;;;;;;;;;;5043701;28;20220;-29
2023/06/02 09:04:31;;;;;;;7.25;4.53;;;;;;;;;;5054026;28;20233;-31
2023/06/02 09:07:20;;;;;;;5.43;4.50;;;;;;;;;;5056331;28;20698;-25
2023/06/02 09:09:48;;;;;;;7.88;4.82;;;;;;;;;;5056730;28;20218;-28
2023/06/02 09:12:16;;;;;;;5.53;4.72;;;;;;;;;;5048736;28;20292;-26
2023/06/02 09:14:44;;;;;;;4.75;4.22;;;;;;;;;;5055058;28;20296;-25
2023/06/02 09:17:27;;;;;;;6.78;4.38;;;;;;;;;;5053090;28;20248;-27
2023/06/02 09:19:55;;;;;;;4.75;4.35;;;;;;;;;;5049449;28;20212;-26
2023/06/02 09:22:24;;;;;;;6.35;4.65;;;;;;;;;;5055353;28;20215;-30
2023/06/02 09:24:52;;;;;;;5.68;4.53;;;;;;;;;;5050762;28;20502;-28
2023/06/02 09:27:19;;;;;;;8.68;4.78;;;;;;;;;;5048990;28;20229;-28
2023/06/02 09:29:47;;;;;;;5.57;4.72;;;;;;;;;;5055056;28;20667;-28
2023/06/02 09:32:15;;;;;;;5.38;4.55;;;;;;;;;;5047132;28;20650;-30
2023/06/02 09:34:43;;;;;;;5.28;4.78;;;;;;;;;;5054668;28;20209;-30
2023/06/02 09:37:11;;;;;;;5.47;4.68;;;;;;;;;;5055540;28;20236;-27
2023/06/02 09:39:42;;;;;;;8.13;4.50;;;;;;;;;;5055679;28;20658;-25
2023/06/02 09:42:09;;;;;;;5.57;4.65;;;;;;;;;;5044787;28;20200;-28
2023/06/02 09:44:36;;;;;;;4.95;4.43;;;;;;;;;;5054283;28;20232;-25
2023/06/02 09:47:03;;;;;;;7.10;4.10;;;;;;;;;;5046598;28;20230;-27
2023/06/02 09:49:39;;;;;;;5.78;4.47;;;;;;;;;;5053208;28;20209;-25
2023/06/02 09:52:13;;;;;;;6.28;4.78;;;;;;;;;;5055875;28;20698;-25
2023/06/02 09:54:42;;;;;;;4.55;4.00;;;;;;;;;;5044577;28;20595;-27
2023/06/02 09:57:10;;;;;;;4.57;4.15;;;;;;;;;;5047049;28;20237;-26
2023/06/02 09:59:38;;;;;;;5.80;4.60;;;;;;;;;;5045229;28;20196;-27
2023/06/02 10:02:05;;;;;;;4.75;4.32;;;;;;;;;;5051607;28;20220;-23
2023/06/02 10:04:32;;;;;;;5.82;4.28;;;;;;;;;;5053984;28;20751;-27
2023/06/02 10:07:06;;;;;;;4.70;4.05;;;;;;;;;;5054591;28;20226;-25
2023/06/02 10:09:39;;;;;;;5.07;4.13;;;;;;;;;;5054534;28;20196;-27
2023/06/02 10:12:14;;;;;;;4.93;3.97;;;;;;;;;;5049747;28;20220;-26
2023/06/02 10:14:57;;;;;;;6.57;4.20;;;;;;;;;;5046232;28;20207;-22
2023/06/02 10:17:29;;;;;;;6.70;4.35;;;;;;;;;;5042765;28;20254;-24
2023/06/02 10:20:07;;;;;;;5.20;4.47;;;;;;;;;;5054048;28;20208;-25
2023/06/02 10:22:45;;;;;;;6.65;4.32;;;;;;;;;;5053727;28;20218;-26
2023/06/02 10:25:16;;;;;;;7.53;4.28;;;;;;;;;;5039403;28;20240;-26
2023/06/02 10:27:45;;;;;;;5.88;4.20;;;;;;;;;;5052676;28;20207;-25
2023/06/02 10:30:12;;;;;;;8.80;4.35;;;;;;;;;;5053808;28;20228;-24
2023/06/02 10:32:44;;;;;;;6.88;3.90;;;;;;;;;;5041260;28;20218;-24
2023/06/02 10:35:11;;;;;;;6.53;3.85;;;;;;;;;;5052250;28;20286;-24
2023/06/02 10:37:39;;;;;;;8.85;4.40;;;;;;;;;;5054107;28;20228;-25
2023/06/02 10:40:10;;;;;;;4.03;3.72;;;;;;;;;;5043184;28;20199;-26
2023/06/02 10:42:37;;;;;;;4.68;4.18;;;;;;;;;;5052941;28;20239;-27
2023/06/02 10:45:24;;;;;;;4.68;4.20;;;;;;;;;;5053657;28;20209;-26
2023/06/02 10:47:52;;;;;;;6.35;4.15;;;;;;;;;;5044111;28;20534;-28
2023/06/02 10:50:21;;;;;;;5.40;4.00;;;;;;;;;;5054145;28;20218;-27
2023/06/02 10:53:09;;;;;;;5.22;4.10;;;;;;;;;;5053906;28;20669;-25
2023/06/02 10:55:36;;;;;;;4.40;3.97;;;;;;;;;;5048002;28;20314;-23
2023/06/02 10:58:04;;;;;;;6.85;4.55;;;;;;;;;;5041417;28;20216;-25
2023/06/02 11:00:43;;;;;;;5.68;4.22;;;;;;;;;;5053036;28;20224;-23
2023/06/02 11:03:25;;;;;;;4.88;4.30;;;;;;;;;;5043854;28;20722;-25
2023/06/02 11:06:15;;;;;;;4.55;3.95;;;;;;;;;;5046689;28;20229;-27
2023/06/02 11:08:42;;;;;;;7.55;4.22;;;;;;;;;;5053553;28;20245;-24
2023/06/02 11:11:09;;;;;;;4.88;4.40;;;;;;;;;;5042770;28;20227;-24
2023/06/02 11:13:57;;;;;;;6.68;4.78;;;;;;;;;;5052580;28;20206;-25
2023/06/02 11:16:24;;;;;;;6.63;4.18;;;;;;;;;;5050764;28;20236;-26
2023/06/02 11:18:51;;;;;;;6.72;3.85;;;;;;;;;;5050824;28;20212;-23
2023/06/02 11:21:22;;;;;;;5.43;4.35;;;;;;;;;;5053752;28;20714;-24
2023/06/02 11:23:49;;;;;;;6.13;4.25;;;;;;;;;;5053589;28;20191;-24
2023/06/02 11:26:17;;;;;;;5.63;4.07;;;;;;;;;;5046353;28;20251;-24
2023/06/02 11:28:44;;;;;;;6.75;4.13;;;;;;;;;;5044406;28;20575;-26
2023/06/02 11:31:12;;;;;;;5.18;3.63;;;;;;;;;;5048326;28;20249;-24
2023/06/02 11:33:41;;;;;;;4.03;3.65;;;;;;;;;;5047154;28;20206;-24
2023/06/02 11:36:09;;;;;;;4.75;3.50;;;;;;;;;;5052216;28;20223;-23
2023/06/02 11:38:38;;;;;;;7.63;4.40;;;;;;;;;;5052572;28;20211;-25
2023/06/02 11:41:12;;;;;;;6.40;3.60;;;;;;;;;;5049646;28;20610;-23
2023/06/02 11:43:39;;;;;;;4.82;3.50;;;;;;;;;;5043611;28;20215;-24
2023/06/02 11:46:10;;;;;;;4.72;4.20;;;;;;;;;;5049584;28;20219;-27
2023/06/02 11:48:38;;;;;;;7.13;3.72;;;;;;;;;;5043627;28;20673;-24
2023/06/02 11:51:05;;;;;;;4.22;3.80;;;;;;;;;;5051979;28;20215;-25
2023/06/02 11:53:32;;;;;;;5.22;4.10;;;;;;;;;;5052055;28;20238;-23
2023/06/02 11:56:01;;;;;;;4.40;4.00;;;;;;;;;;5045276;28;20234;-21
2023/06/02 11:58:29;;;;;;;3.97;3.67;;;;;;;;;;5046116;28;20222;-22
2023/06/02 12:01:07;;;;;;;6.28;4.00;;;;;;;;;;5049507;28;20745;-24
2023/06/02 12:03:34;;;;;;;3.65;3.35;;;;;;;;;;5050084;28;20216;-26
2023/06/02 12:06:08;;;;;;;4.15;3.65;;;;;;;;;;5050129;28;20231;-25
2023/06/02 12:08:36;;;;;;;4.15;3.75;;;;;;;;;;5050041;28;20190;-26
2023/06/02 12:11:04;;;;;;;6.43;3.95;;;;;;;;;;5043125;28;20239;-25
2023/06/02 12:13:32;;;;;;;4.43;3.50;;;;;;;;;;5050645;28;20213;-29
2023/06/02 12:16:18;;;;;;;4.95;3.67;;;;;;;;;;5049202;28;20285;-27
2023/06/02 12:18:45;;;;;;;5.72;4.10;;;;;;;;;;5044687;28;20199;-27
2023/06/02 12:21:22;;;;;;;4.57;3.72;;;;;;;;;;5051007;28;20490;-27
2023/06/02 12:23:49;;;;;;;7.63;4.35;;;;;;;;;;5052200;28;20295;-28
2023/06/02 12:26:17;;;;;;;5.30;4.10;;;;;;;;;;5034925;28;20226;-27
2023/06/02 12:28:44;;;;;;;5.13;3.88;;;;;;;;;;5051589;28;20749;-28
2023/06/02 12:31:12;;;;;;;4.95;3.88;;;;;;;;;;5048008;28;20228;-28
2023/06/02 12:33:40;;;;;;;4.70;3.53;;;;;;;;;;5044455;28;20200;-24
2023/06/02 12:36:07;;;;;;;4.72;3.58;;;;;;;;;;5051205;28;20229;-27
2023/06/02 12:38:35;;;;;;;3.88;3.47;;;;;;;;;;5050140;28;20573;-30
2023/06/02 12:41:03;;;;;;;3.78;3.47;;;;;;;;;;5045918;28;20209;-26
2023/06/02 12:43:31;;;;;;;6.63;3.60;;;;;;;;;;5050836;28;20213;-28
2023/06/02 12:45:59;;;;;;;4.03;3.63;;;;;;;;;;5046393;28;20319;-30
2023/06/02 12:48:26;;;;;;;3.67;3.20;;;;;;;;;;5046533;28;20216;-29
2023/06/02 12:50:53;;;;;;;6.25;3.67;;;;;;;;;;5049482;28;20575;-27
2023/06/02 12:53:20;;;;;;;4.88;3.97;;;;;;;;;;5049482;28;20218;-25
2023/06/02 12:55:47;;;;;;;4.90;3.83;;;;;;;;;;5043051;28;20679;-27
2023/06/02 12:58:15;;;;;;;4.05;3.55;;;;;;;;;;5031343;28;20214;-27
2023/06/02 13:00:44;;;;;;;4.38;3.80;;;;;;;;;;5049983;28;20204;-28
2023/06/02 13:03:11;;;;;;;4.18;3.55;;;;;;;;;;5035301;28;20220;-27
2023/06/02 13:05:39;;;;;;;6.15;3.90;;;;;;;;;;5050666;28;20306;-23
2023/06/02 13:08:06;;;;;;;5.38;3.80;;;;;;;;;;5050984;28;20234;-26
2023/06/02 13:10:33;;;;;;;4.70;3.45;;;;;;;;;;5042101;28;20206;-28
2023/06/02 13:13:03;;;;;;;4.22;3.70;;;;;;;;;;5043876;28;20209;-28
2023/06/02 13:15:30;;;;;;;4.38;3.40;;;;;;;;;;5050626;28;20240;-25
2023/06/02 13:17:58;;;;;;;3.45;3.13;;;;;;;;;;5043461;28;20719;-25
2023/06/02 13:20:26;;;;;;;5.68;3.50;;;;;;;;;;5051967;28;20208;-27
2023/06/02 13:22:53;;;;;;;9.65;3.90;;;;;;;;;;5052929;28;20209;-22
2023/06/02 13:25:20;;;;;;;3.85;3.45;;;;;;;;;;5048308;28;20215;-25
2023/06/02 13:27:47;;;;;;;4.25;3.67;;;;;;;;;;5042325;28;20204;-24
2023/06/02 13:30:15;;;;;;;7.05;3.78;;;;;;;;;;5055221;28;20214;-25
2023/06/02 13:32:42;;;;;;;5.05;3.70;;;;;;;;;;5047478;28;20223;-24
2023/06/02 13:35:11;;;;;;;4.63;3.78;;;;;;;;;;5054882;28;20254;-23
2023/06/02 13:37:38;;;;;;;5.07;3.63;;;;;;;;;;5055493;28;20208;-24
2023/06/02 13:40:06;;;;;;;5.35;3.40;;;;;;;;;;5054976;28;20215;-24
2023/06/02 13:42:33;;;;;;;3.67;3.30;;;;;;;;;;5047230;28;20217;-22
2023/06/02 13:45:00;;;;;;;4.38;3.60;;;;;;;;;;5051664;28;20209;-27
2023/06/02 13:47:27;;;;;;;6.07;3.47;;;;;;;;;;5048225;28;20232;-26
2023/06/02 13:49:54;;;;;;;3.78;3.25;;;;;;;;;;5054284;28;20199;-23
2023/06/02 13:52:26;;;;;;;4.47;3.63;;;;;;;;;;5054692;28;20241;-27
2023/06/02 13:54:57;;;;;;;4.40;3.67;;;;;;;;;;5044260;28;20216;-26
2023/06/02 13:57:24;;;;;;;3.38;3.10;;;;;;;;;;5046383;28;20230;-25
2023/06/02 13:59:51;;;;;;;4.35;3.63;;;;;;;;;;5054258;28;20225;-26
2023/06/02 14:02:19;;;;;;;5.53;3.40;;;;;;;;;;5042329;28;20768;-25
2023/06/02 14:04:46;;;;;;;6.32;3.35;;;;;;;;;;5051054;28;20773;-25
2023/06/02 14:07:13;;;;;;;4.65;3.63;;;;;;;;;;5053498;28;20227;-23
2023/06/02 14:09:41;;;;;;;5.00;3.50;;;;;;;;;;5047983;28;20243;-24
2023/06/02 14:12:11;;;;;;;3.45;3.15;;;;;;;;;;5045167;28;20708;-28
2023/06/02 14:14:38;;;;;;;6.57;3.30;;;;;;;;;;5053994;28;20209;-23
2023/06/02 14:17:06;;;;;;;5.00;3.20;;;;;;;;;;5045567;28;20571;-26
2023/06/02 14:19:33;;;;;;;3.45;3.13;;;;;;;;;;5054583;28;20218;-24
2023/06/02 14:22:00;;;;;;;5.75;3.25;;;;;;;;;;5054699;28;20211;-24
2023/06/02 14:24:27;;;;;;;3.42;2.95;;;;;;;;;;5048883;28;20204;-26
2023/06/02 14:26:56;;;;;;;4.10;3.70;;;;;;;;;;5044041;28;20319;-25
2023/06/02 14:29:23;;;;;;;4.82;3.30;;;;;;;;;;5054299;28;20265;-24
2023/06/02 14:31:51;;;;;;;5.18;3.22;;;;;;;;;;5050748;28;20220;-24
2023/06/02 14:34:18;;;;;;;6.38;3.33;;;;;;;;;;5048765;28;20219;-25
2023/06/02 14:36:45;;;;;;;4.15;3.70;;;;;;;;;;5053873;28;20310;-24
2023/06/02 14:39:12;;;;;;;3.88;3.05;;;;;;;;;;5054194;28;20212;-25
2023/06/02 14:41:39;;;;;;;5.32;3.25;;;;;;;;;;5046592;28;20199;-24
2023/06/02 14:44:08;;;;;;;3.60;3.30;;;;;;;;;;5053165;28;20224;-23
2023/06/02 14:46:35;;;;;;;3.90;3.03;;;;;;;;;;5048658;28;20546;-23
2023/06/02 14:49:02;;;;;;;6.30;3.20;;;;;;;;;;5048190;28;20209;-24
2023/06/02 14:51:29;;;;;;;7.45;3.17;;;;;;;;;;5054415;28;20228;-25